Time;durP1;ratioP1;P1;durP2;ratioP2;P2;SDS_P1;SDS_P2;PMS_P1;PMS_P2;Temp;Humidity;BMP_temperature;BMP_pressure;BME280_temperature;BME280_humidity;BME280_pressure;Samples;Min_cycle;Max_cycle;Signal;HPM_P1;HPM_P2
2021/11/27 00:34:47;;;;;;;1.38;0.95;;;5.20;93.10;;;;;;2929474;23;20342;-82
2021/11/27 00:38:15;;;;;;;1.00;0.60;;;5.20;93.10;;;;;;4892625;29;20170;-86
2021/11/27 00:45:16;;;;;;;1.88;1.13;;;5.30;93.10;;;;;;4785219;30;20041;-86
2021/11/27 00:59:12;;;;;;;3.08;1.25;;;5.20;93.20;;;;;;4604785;31;20458;-86
2021/11/27 01:22:26;;;;;;;1.63;0.90;;;5.10;93.10;;;;;;6253622;22;20016;-86
2021/11/27 01:24:43;;;;;;;1.42;0.90;;;5.10;93.10;;;;;;6162349;23;20044;-87
2021/11/27 01:28:48;;;;;;;2.33;1.10;;;5.00;93.10;;;;;;6129040;23;20366;-85
2021/11/27 01:31:06;;;;;;;2.30;1.00;;;5.10;93.20;;;;;;6062282;23;20022;-85
2021/11/27 01:33:39;;;;;;;3.17;1.20;;;5.00;93.20;;;;;;6094414;23;20269;-84
2021/11/27 01:36:47;;;;;;;2.13;1.10;;;4.90;93.30;;;;;;6047325;23;20735;-85
2021/11/27 01:39:41;;;;;;;2.00;1.05;;;4.90;93.20;;;;;;5951172;24;20055;-84
2021/11/27 01:45:47;;;;;;;1.10;0.80;;;4.90;93.20;;;;;;5946431;24;20025;-85
2021/11/27 01:52:43;;;;;;;1.65;0.85;;;4.90;93.20;;;;;;5787789;24;20031;-84
2021/11/27 02:13:06;;;;;;;0.40;0.28;;;4.40;93.30;;;;;;5618164;25;20032;-85
2021/11/27 02:16:12;;;;;;;0.25;0.22;;;4.30;93.30;;;;;;5640661;25;20030;-85
2021/11/27 02:20:02;;;;;;;0.50;0.20;;;4.30;93.30;;;;;;5610601;25;20026;-85
2021/11/27 02:23:40;;;;;;;0.22;0.22;;;4.20;93.40;;;;;;5566875;25;20037;-85
2021/11/27 02:52:29;;;;;;;0.10;0.10;;;3.90;93.40;;;;;;5554411;25;20034;-86
2021/11/27 02:55:32;;;;;;;0.35;0.17;;;3.90;93.40;;;;;;5611454;25;20077;-86
2021/11/27 03:34:37;;;;;;;0.17;0.17;;;3.60;93.40;;;;;;5892263;24;20017;-86
2021/11/27 04:26:11;;;;;;;0.00;0.00;;;2.90;93.50;;;;;;5663875;25;20188;-86
2021/11/27 04:47:55;;;;;;;0.00;0.00;;;2.60;93.60;;;;;;5635337;25;20037;-84
2021/11/27 05:14:03;;;;;;;0.30;0.13;;;2.60;93.60;;;;;;5588781;25;20019;-84
2021/11/27 05:17:27;;;;;;;0.00;0.00;;;2.40;93.50;;;;;;5635679;25;20027;-84
2021/11/27 05:20:19;;;;;;;0.10;0.10;;;2.40;93.60;;;;;;5610630;25;20070;-83
2021/11/27 05:23:01;;;;;;;0.20;0.10;;;2.40;93.50;;;;;;5610439;25;20030;-83
2021/11/27 05:25:35;;;;;;;;;;;2.30;93.50;;;;;;5601408;25;20076;-84
2021/11/27 05:28:30;;;;;;;0.20;0.10;;;2.30;93.50;;;;;;5547192;25;19952;-84
2021/11/27 05:31:05;;;;;;;0.03;0.03;;;2.20;93.50;;;;;;5556508;25;20103;-84
2021/11/27 05:34:37;;;;;;;0.10;0.10;;;2.30;93.60;;;;;;5521242;25;20050;-84
2021/11/27 05:37:08;;;;;;;0.60;0.10;;;2.20;93.60;;;;;;5528090;25;20016;-84
2021/11/27 05:39:38;;;;;;;0.08;0.08;;;2.10;93.60;;;;;;5514094;25;20028;-83
2021/11/27 05:42:59;;;;;;;0.70;0.30;;;2.20;93.60;;;;;;5570680;25;20116;-82
2021/11/27 05:45:39;;;;;;;0.20;0.20;;;2.10;93.60;;;;;;5591324;25;20138;-83
2021/11/27 05:48:19;;;;;;;0.30;0.30;;;2.10;93.60;;;;;;5632646;25;20046;-83
2021/11/27 05:53:40;;;;;;;0.22;0.22;;;2.20;93.60;;;;;;5733290;24;20454;-83
2021/11/27 05:56:21;;;;;;;0.20;0.20;;;2.20;93.60;;;;;;5736132;24;20027;-83
2021/11/27 05:58:58;;;;;;;0.45;0.38;;;2.20;93.50;;;;;;5763839;24;20024;-83
2021/11/27 06:01:36;;;;;;;0.43;0.40;;;2.10;93.60;;;;;;5750146;24;20023;-83
2021/11/27 06:04:16;;;;;;;0.68;0.32;;;2.10;93.60;;;;;;5798168;24;20019;-83
2021/11/27 06:06:48;;;;;;;0.57;0.30;;;2.10;93.60;;;;;;5861676;24;20030;-84
2021/11/27 06:09:31;;;;;;;0.32;0.30;;;2.10;93.60;;;;;;5834669;24;20027;-84
2021/11/27 06:12:12;;;;;;;0.50;0.40;;;2.10;93.90;;;;;;5866300;24;20062;-84
2021/11/27 06:18:44;;;;;;;0.40;0.30;;;2.10;93.60;;;;;;5868943;24;20102;-84
2021/11/27 06:24:41;;;;;;;0.60;0.30;;;1.90;93.60;;;;;;5780189;24;20055;-83
2021/11/27 06:27:16;;;;;;;0.95;0.40;;;1.90;93.60;;;;;;5837729;24;20139;-84
2021/11/27 06:29:52;;;;;;;0.38;0.30;;;2.00;93.70;;;;;;5800493;24;20023;-84
2021/11/27 06:32:23;;;;;;;0.75;0.38;;;1.90;93.70;;;;;;5785373;24;20081;-84
2021/11/27 06:35:11;;;;;;;0.22;0.22;;;1.90;93.70;;;;;;5786805;24;20020;-84
2021/11/27 06:37:37;;;;;;;0.30;0.30;;;1.90;93.70;;;;;;5763782;24;20031;-84
2021/11/27 06:40:04;;;;;;;0.20;0.20;;;1.90;93.60;;;;;;5833869;24;20026;-84
2021/11/27 06:42:30;;;;;;;0.50;0.40;;;1.90;93.70;;;;;;5839056;24;20029;-83
2021/11/27 06:44:59;;;;;;;0.55;0.35;;;1.90;93.70;;;;;;5856607;24;20522;-83
2021/11/27 06:47:25;;;;;;;0.50;0.30;;;1.90;93.70;;;;;;5907152;24;20025;-82
2021/11/27 06:49:52;;;;;;;0.35;0.30;;;1.90;93.70;;;;;;5932495;24;20065;-83
2021/11/27 06:52:18;;;;;;;0.30;0.30;;;1.90;93.70;;;;;;5977178;23;20079;-83
2021/11/27 06:54:44;;;;;;;0.28;0.28;;;1.90;93.70;;;;;;6028103;23;20356;-83
2021/11/27 06:57:13;;;;;;;0.93;0.40;;;1.90;93.70;;;;;;6047250;23;20057;-82
2021/11/27 06:59:40;;;;;;;0.25;0.25;;;1.90;93.70;;;;;;6072317;23;20022;-84
2021/11/27 07:02:07;;;;;;;0.45;0.40;;;1.90;93.70;;;;;;6101912;23;20441;-84
2021/11/27 07:15:42;;;;;;;0.13;0.10;;;1.90;93.70;;;;;;6007161;23;20071;-82
2021/11/27 07:18:08;;;;;;;0.20;0.20;;;1.90;93.70;;;;;;5986779;23;20019;-82
2021/11/27 07:20:34;;;;;;;0.20;0.20;;;1.90;93.70;;;;;;6065036;23;20034;-82
2021/11/27 07:23:00;;;;;;;0.10;0.10;;;1.80;93.60;;;;;;6017234;23;20078;-82
2021/11/27 07:25:29;;;;;;;0.10;0.10;;;1.90;93.70;;;;;;6017394;23;20011;-82
2021/11/27 07:27:56;;;;;;;0.20;0.20;;;1.90;93.60;;;;;;6017811;23;20479;-83
2021/11/27 07:30:22;;;;;;;0.15;0.10;;;1.80;93.60;;;;;;6017266;23;20129;-83
2021/11/27 07:32:48;;;;;;;0.20;0.17;;;1.90;93.60;;;;;;6021868;23;20165;-83
2021/11/27 07:35:19;;;;;;;0.10;0.10;;;2.00;93.60;;;;;;6069252;23;20041;-83
2021/11/27 07:37:45;;;;;;;0.32;0.30;;;2.00;93.70;;;;;;6046389;23;20294;-82
2021/11/27 07:40:11;;;;;;;0.30;0.20;;;1.90;93.60;;;;;;6020511;23;20019;-82
2021/11/27 07:42:38;;;;;;;0.25;0.20;;;1.90;93.60;;;;;;6019215;23;20050;-81
2021/11/27 07:45:06;;;;;;;0.10;0.10;;;1.90;93.60;;;;;;6045507;23;20021;-81
2021/11/27 07:47:35;;;;;;;0.20;0.20;;;1.80;93.60;;;;;;6092248;22;20074;-81
2021/11/27 07:50:04;;;;;;;0.20;0.20;;;1.90;93.60;;;;;;6167830;22;20070;-81
2021/11/27 07:52:30;;;;;;;0.20;0.20;;;1.90;93.60;;;;;;6168890;22;20012;-80
2021/11/27 07:54:57;;;;;;;0.30;0.20;;;1.90;93.60;;;;;;6166356;23;20015;-80
2021/11/27 07:57:23;;;;;;;0.28;0.20;;;2.00;93.60;;;;;;6194038;23;20039;-80
2021/11/27 07:59:49;;;;;;;0.50;0.30;;;1.90;93.60;;;;;;6169217;23;20036;-79
2021/11/27 08:02:15;;;;;;;0.30;0.28;;;1.90;93.60;;;;;;6193669;23;20016;-79
2021/11/27 08:04:41;;;;;;;0.30;0.20;;;1.90;93.70;;;;;;6168253;23;20008;-79
2021/11/27 08:07:07;;;;;;;0.40;0.30;;;1.80;93.60;;;;;;6167910;23;20135;-79
2021/11/27 08:09:33;;;;;;;0.22;0.20;;;1.90;93.60;;;;;;6191861;22;20000;-79
2021/11/27 08:11:59;;;;;;;0.30;0.30;;;1.90;93.70;;;;;;6165839;22;20072;-79
2021/11/27 08:14:31;;;;;;;0.50;0.20;;;1.90;93.70;;;;;;6168228;22;20008;-79
2021/11/27 08:20:56;;;;;;;0.15;0.13;;;1.80;93.70;;;;;;6120098;23;20114;-78
2021/11/27 08:23:37;;;;;;;0.10;0.10;;;1.80;93.60;;;;;;6052554;23;20045;-78
2021/11/27 08:26:36;;;;;;;0.32;0.32;;;1.80;93.60;;;;;;6042402;23;20054;-78
2021/11/27 08:53:06;;;;;;;0.20;0.20;;;1.70;93.50;;;;;;5943993;24;20096;-78
2021/11/27 08:55:32;;;;;;;0.20;0.20;;;1.80;93.50;;;;;;5898588;24;20367;-77
2021/11/27 08:58:00;;;;;;;0.20;0.20;;;1.80;93.40;;;;;;5995880;23;20083;-79
2021/11/27 09:00:26;;;;;;;0.25;0.22;;;1.70;93.40;;;;;;6017974;23;20396;-80
2021/11/27 09:03:01;;;;;;;0.38;0.20;;;1.80;93.50;;;;;;6078140;23;20143;-80
2021/11/27 09:10:11;;;;;;;0.10;0.10;;;1.80;93.50;;;;;;6204863;23;20063;-80
2021/11/27 09:12:37;;;;;;;0.47;0.23;;;1.90;93.40;;;;;;6207803;23;20009;-81
2021/11/27 09:15:09;;;;;;;0.20;0.20;;;1.80;93.40;;;;;;6199662;23;20021;-81
2021/11/27 09:22:12;;;;;;;0.30;0.20;;;1.80;93.40;;;;;;5974931;23;20042;-81
2021/11/27 09:24:41;;;;;;;0.52;0.30;;;1.90;93.40;;;;;;5971456;23;20480;-82
2021/11/27 09:27:07;;;;;;;0.32;0.20;;;1.80;93.30;;;;;;5900448;24;20017;-80
2021/11/27 09:29:38;;;;;;;0.20;0.20;;;1.90;93.30;;;;;;5866474;24;20057;-81
2021/11/27 09:32:04;;;;;;;0.40;0.40;;;1.80;93.30;;;;;;5895993;24;20017;-80
2021/11/27 09:34:30;;;;;;;0.35;0.32;;;1.80;93.30;;;;;;5919611;24;20098;-80
2021/11/27 09:36:56;;;;;;;0.45;0.35;;;1.80;93.30;;;;;;5942530;24;20024;-81
2021/11/27 09:39:26;;;;;;;0.30;0.30;;;1.80;93.30;;;;;;5929602;24;20025;-81
2021/11/27 09:41:56;;;;;;;0.32;0.30;;;1.90;93.30;;;;;;5935652;24;20088;-81
2021/11/27 09:44:24;;;;;;;0.30;0.30;;;1.90;93.30;;;;;;5977798;23;20072;-80
2021/11/27 09:46:50;;;;;;;0.38;0.32;;;1.90;93.60;;;;;;6003231;23;20020;-79
2021/11/27 09:49:21;;;;;;;0.32;0.28;;;1.90;93.30;;;;;;6013583;23;20302;-81
2021/11/27 09:51:53;;;;;;;1.30;0.40;;;1.90;93.30;;;;;;6029551;23;20511;-81
2021/11/27 09:54:23;;;;;;;0.20;0.20;;;2.00;93.30;;;;;;6009144;23;20022;-80
2021/11/27 09:56:52;;;;;;;0.25;0.20;;;2.00;93.30;;;;;;6203394;22;20008;-81
2021/11/27 09:59:27;;;;;;;0.30;0.30;;;2.10;93.30;;;;;;6239233;23;20073;-79
2021/11/27 10:01:57;;;;;;;0.40;0.30;;;1.80;93.20;;;;;;6201591;23;20021;-82
2021/11/27 10:04:31;;;;;;;0.20;0.20;;;2.20;93.20;;;;;;6145983;23;20029;-84
2021/11/27 10:07:36;;;;;;;0.20;0.20;;;2.10;93.20;;;;;;6135086;23;20021;-81
2021/11/27 10:10:26;;;;;;;0.63;0.28;;;2.20;93.20;;;;;;6100577;23;20045;-85
2021/11/27 10:13:36;;;;;;;2.00;0.40;;;2.30;93.20;;;;;;6150728;23;20021;-83
2021/11/27 10:16:52;;;;;;;0.32;0.30;;;2.40;93.20;;;;;;6070183;23;20449;-84
2021/11/27 10:19:17;;;;;;;1.13;0.40;;;2.40;93.10;;;;;;5945203;24;20024;-82
2021/11/27 10:21:43;;;;;;;1.23;0.50;;;2.50;93.10;;;;;;5948844;24;20044;-80
2021/11/27 10:24:30;;;;;;;0.50;0.40;;;2.50;93.00;;;;;;5968187;24;20027;-82
2021/11/27 10:26:57;;;;;;;0.32;0.32;;;2.70;93.00;;;;;;5960424;23;20024;-82
2021/11/27 10:33:37;;;;;;;0.65;0.40;;;2.70;92.90;;;;;;5918390;24;20166;-84
2021/11/27 10:36:29;;;;;;;0.82;0.50;;;2.80;92.90;;;;;;5915131;24;20028;-86
2021/11/27 10:39:07;;;;;;;1.17;0.52;;;2.80;92.80;;;;;;5827320;24;20030;-84
2021/11/27 10:41:58;;;;;;;0.70;0.55;;;2.80;92.90;;;;;;5829217;24;20022;-86
2021/11/27 10:44:27;;;;;;;1.35;0.75;;;2.90;92.90;;;;;;5870704;24;20022;-81
2021/11/27 10:47:06;;;;;;;0.95;0.57;;;2.80;92.80;;;;;;5870919;24;20450;-82
2021/11/27 10:49:31;;;;;;;0.77;0.57;;;3.00;92.80;;;;;;5875944;24;20073;-81
2021/11/27 10:52:11;;;;;;;1.27;0.70;;;3.00;92.90;;;;;;5915368;24;20020;-81
2021/11/27 10:54:54;;;;;;;2.03;0.95;;;3.00;92.90;;;;;;5987607;24;20495;-82
2021/11/27 10:57:36;;;;;;;2.42;1.20;;;3.00;92.90;;;;;;6100252;23;20069;-81
2021/11/27 11:00:09;;;;;;;2.65;1.27;;;3.10;92.90;;;;;;6076786;23;20014;-81
2021/11/27 11:02:37;;;;;;;2.40;1.02;;;3.10;92.80;;;;;;6053487;23;20101;-82
2021/11/27 11:05:09;;;;;;;2.85;1.30;;;3.20;92.80;;;;;;6076363;23;20074;-82
2021/11/27 11:07:34;;;;;;;;;;;3.30;92.80;;;;;;6135025;23;20108;-81
2021/11/27 11:10:14;;;;;;;3.28;1.33;;;3.40;92.80;;;;;;6196593;22;19919;-81
2021/11/27 11:12:50;;;;;;;2.67;1.40;;;3.50;92.70;;;;;;6282151;22;20004;-81
2021/11/27 11:15:22;;;;;;;5.40;1.92;;;3.60;92.60;;;;;;6253869;22;20455;-81
2021/11/27 11:17:53;;;;;;;3.55;1.60;;;3.60;92.60;;;;;;6249875;22;20004;-81
2021/11/27 11:20:22;;;;;;;2.63;1.33;;;3.70;92.60;;;;;;6225246;22;20000;-80
2021/11/27 11:23:03;;;;;;;3.92;1.70;;;3.90;92.60;;;;;;6225506;22;20034;-81
2021/11/27 11:25:31;;;;;;;4.18;2.10;;;3.90;92.60;;;;;;6231143;22;20000;-81
2021/11/27 11:27:58;;;;;;;4.97;2.05;;;3.90;92.50;;;;;;6229191;22;20308;-81
2021/11/27 11:30:36;;;;;;;4.32;2.13;;;3.90;92.50;;;;;;6281926;22;20008;-81
2021/11/27 11:33:02;;;;;;;4.55;2.25;;;4.00;92.50;;;;;;6253966;22;20035;-81
2021/11/27 11:35:28;;;;;;;5.05;2.20;;;4.10;92.50;;;;;;6233717;22;20450;-80
2021/11/27 11:37:54;;;;;;;5.03;2.47;;;4.00;92.50;;;;;;6249911;22;20011;-80
2021/11/27 11:40:20;;;;;;;4.63;2.30;;;4.10;92.50;;;;;;6252343;22;20335;-80
2021/11/27 11:42:46;;;;;;;4.88;2.60;;;4.20;92.50;;;;;;6227362;22;20015;-79
2021/11/27 11:45:12;;;;;;;5.00;2.25;;;4.20;92.50;;;;;;6203257;22;20015;-80
2021/11/27 11:47:38;;;;;;;5.38;2.63;;;4.30;92.50;;;;;;6253865;22;20043;-80
2021/11/27 11:50:08;;;;;;;4.78;2.28;;;4.40;92.50;;;;;;6279988;22;20015;-80
2021/11/27 11:52:44;;;;;;;4.72;2.10;;;4.50;92.50;;;;;;6248318;22;20145;-81
2021/11/27 11:55:17;;;;;;;6.10;2.53;;;4.50;92.50;;;;;;6253596;22;20011;-80
2021/11/27 11:57:48;;;;;;;5.28;2.13;;;4.50;92.50;;;;;;6252645;22;20015;-81
2021/11/27 12:00:34;;;;;;;4.55;1.98;;;4.60;92.40;;;;;;6255832;22;20012;-80
2021/11/27 12:03:07;;;;;;;4.63;2.30;;;4.60;92.40;;;;;;6280955;22;20000;-80
2021/11/27 12:05:34;;;;;;;4.95;1.90;;;4.70;92.40;;;;;;6250706;22;20054;-80
2021/11/27 12:08:01;;;;;;;4.85;2.05;;;4.70;92.40;;;;;;6222985;22;20102;-80
2021/11/27 12:10:43;;;;;;;3.28;1.65;;;4.70;92.40;;;;;;6242456;22;20007;-80
2021/11/27 12:13:17;;;;;;;4.40;2.00;;;4.80;92.40;;;;;;6227136;22;20030;-80
2021/11/27 12:15:45;;;;;;;4.57;1.88;;;4.80;92.40;;;;;;6275926;22;20018;-79
2021/11/27 12:18:17;;;;;;;4.55;1.88;;;4.80;92.40;;;;;;6249307;22;20094;-80
2021/11/27 12:20:50;;;;;;;3.72;1.83;;;4.90;92.40;;;;;;6249447;22;20137;-80
2021/11/27 12:23:35;;;;;;;2.58;1.40;;;5.00;92.40;;;;;;6249787;22;20422;-80
2021/11/27 12:26:16;;;;;;;4.75;1.90;;;5.00;92.40;;;;;;6246645;22;20012;-80
2021/11/27 12:29:11;;;;;;;4.50;1.73;;;5.00;92.40;;;;;;6222642;22;20086;-80
2021/11/27 12:31:40;;;;;;;4.35;1.67;;;5.10;92.30;;;;;;6248185;22;20051;-80
2021/11/27 12:34:08;;;;;;;3.88;1.70;;;5.10;92.30;;;;;;6248214;22;20008;-80
2021/11/27 12:36:40;;;;;;;3.50;1.48;;;5.20;92.30;;;;;;6248622;22;20054;-81
2021/11/27 12:39:29;;;;;;;3.90;1.50;;;5.30;92.30;;;;;;6246141;22;20447;-81
2021/11/27 12:42:15;;;;;;;2.95;1.50;;;5.40;92.20;;;;;;6256442;22;20454;-81
2021/11/27 12:44:44;;;;;;;5.32;1.70;;;5.40;92.20;;;;;;6275200;22;20012;-81
2021/11/27 12:47:31;;;;;;;4.60;1.65;;;5.50;92.20;;;;;;6217478;22;20026;-82
2021/11/27 12:50:01;;;;;;;3.17;1.50;;;5.50;92.20;;;;;;6245486;22;20011;-82
2021/11/27 12:52:42;;;;;;;3.67;1.60;;;5.60;92.20;;;;;;6244395;22;20030;-82
2021/11/27 12:55:32;;;;;;;4.35;1.70;;;5.80;92.10;;;;;;6246839;22;20000;-82
2021/11/27 12:57:59;;;;;;;2.70;1.25;;;5.80;92.10;;;;;;6223302;22;20016;-80
2021/11/27 13:00:27;;;;;;;4.15;1.83;;;5.90;92.00;;;;;;6240510;22;20884;-82
2021/11/27 13:02:57;;;;;;;3.75;1.70;;;5.90;92.00;;;;;;6242111;22;20099;-82
2021/11/27 13:05:37;;;;;;;2.85;1.50;;;5.90;92.00;;;;;;6236290;22;20027;-82
2021/11/27 13:08:05;;;;;;;3.47;1.50;;;5.80;92.00;;;;;;6183950;23;20429;-80
2021/11/27 13:10:52;;;;;;;2.35;1.30;;;5.80;92.10;;;;;;6187385;23;20091;-82
2021/11/27 13:13:20;;;;;;;4.10;1.15;;;5.70;92.10;;;;;;6194172;23;20025;-81
2021/11/27 13:16:32;;;;;;;5.20;1.35;;;5.70;92.20;;;;;;6142694;23;20025;-83
2021/11/27 13:19:03;;;;;;;2.58;0.93;;;5.60;92.20;;;;;;6145412;23;20024;-82
2021/11/27 13:21:52;;;;;;;2.22;1.00;;;5.60;92.30;;;;;;6142486;23;20325;-84
2021/11/27 13:24:19;;;;;;;1.63;1.00;;;5.50;92.30;;;;;;6104789;23;20020;-84
2021/11/27 13:26:47;;;;;;;2.72;0.90;;;5.60;92.40;;;;;;6076997;23;20030;-81
2021/11/27 13:29:13;;;;;;;1.60;0.80;;;5.40;92.40;;;;;;5989968;23;20015;-81
2021/11/27 13:31:50;;;;;;;1.85;0.90;;;5.50;92.40;;;;;;5968572;23;20071;-83
2021/11/27 13:34:25;;;;;;;3.00;1.15;;;5.40;92.50;;;;;;5957743;24;20033;-81
2021/11/27 13:37:19;;;;;;;1.73;0.80;;;5.40;92.50;;;;;;5885095;24;20013;-84
2021/11/27 13:40:14;;;;;;;3.08;1.08;;;5.40;92.50;;;;;;5832352;24;20074;-83
2021/11/27 13:46:28;;;;;;;3.95;1.00;;;5.30;92.40;;;;;;5681639;25;20439;-83
2021/11/27 13:49:10;;;;;;;3.58;1.35;;;5.40;92.50;;;;;;5727480;24;20043;-81
2021/11/27 13:51:37;;;;;;;2.47;1.20;;;5.20;92.50;;;;;;5714306;25;20020;-80
2021/11/27 13:54:09;;;;;;;2.83;1.27;;;5.20;92.50;;;;;;5712544;25;20027;-84
2021/11/27 13:56:38;;;;;;;2.20;1.05;;;5.20;92.50;;;;;;5696754;25;20035;-83
2021/11/27 13:59:03;;;;;;;2.60;1.20;;;5.20;92.60;;;;;;5752483;24;20020;-82
2021/11/27 14:01:29;;;;;;;1.90;1.20;;;5.10;92.60;;;;;;5810246;24;20469;-83
2021/11/27 14:03:55;;;;;;;1.27;0.93;;;5.20;92.60;;;;;;5805855;24;20033;-79
2021/11/27 14:06:23;;;;;;;2.85;1.17;;;5.20;92.60;;;;;;5805051;24;20043;-78
2021/11/27 14:08:53;;;;;;;1.80;0.98;;;5.20;92.60;;;;;;5764914;24;20011;-80
2021/11/27 14:11:19;;;;;;;3.05;1.20;;;5.20;92.60;;;;;;5801614;24;20007;-78
2021/11/27 14:14:00;;;;;;;3.22;1.42;;;5.20;92.60;;;;;;5843522;24;20493;-82
2021/11/27 14:16:26;;;;;;;2.60;1.30;;;5.10;92.50;;;;;;5868129;23;20016;-82
2021/11/27 14:19:08;;;;;;;2.20;1.30;;;5.10;92.60;;;;;;5960249;23;20016;-81
2021/11/27 14:21:35;;;;;;;3.58;1.50;;;5.10;92.60;;;;;;5982400;23;20009;-81
2021/11/27 14:24:09;;;;;;;2.60;1.10;;;5.00;92.60;;;;;;6246730;22;20027;-80
2021/11/27 14:26:47;;;;;;;1.75;1.02;;;5.00;92.60;;;;;;6199702;22;20195;-82
2021/11/27 14:29:20;;;;;;;1.98;1.13;;;4.90;92.60;;;;;;6225697;22;20034;-82
2021/11/27 14:31:49;;;;;;;1.77;1.20;;;5.00;92.60;;;;;;6215196;23;20043;-85
2021/11/27 14:34:22;;;;;;;3.30;1.40;;;4.90;92.60;;;;;;6158219;23;20117;-81
2021/11/27 14:37:15;;;;;;;2.85;1.20;;;4.90;92.60;;;;;;6161198;23;20009;-83
2021/11/27 14:39:41;;;;;;;2.17;1.10;;;4.80;92.60;;;;;;6157415;23;20071;-82
2021/11/27 14:42:13;;;;;;;2.75;1.30;;;4.80;92.60;;;;;;6131585;23;20017;-83
2021/11/27 14:44:39;;;;;;;3.00;1.33;;;4.80;92.60;;;;;;6133169;23;20084;-84
2021/11/27 14:47:08;;;;;;;2.22;1.20;;;4.70;92.60;;;;;;6157176;23;20357;-85
2021/11/27 14:49:38;;;;;;;1.33;0.90;;;4.80;92.70;;;;;;6134295;23;20020;-84
2021/11/27 14:52:26;;;;;;;1.73;0.93;;;4.80;92.70;;;;;;6135827;23;20101;-83
2021/11/27 14:55:16;;;;;;;1.67;1.00;;;4.90;92.70;;;;;;6137256;23;20036;-84
2021/11/27 15:00:45;;;;;;;2.20;1.00;;;4.80;92.60;;;;;;6092500;23;20108;-80
2021/11/27 15:03:19;;;;;;;2.05;1.10;;;4.80;92.60;;;;;;6062734;23;20025;-80
2021/11/27 15:05:45;;;;;;;1.95;1.20;;;4.80;92.60;;;;;;6146678;23;20013;-81
2021/11/27 15:08:15;;;;;;;2.33;1.23;;;4.80;92.60;;;;;;6129359;23;20021;-82
2021/11/27 15:10:41;;;;;;;1.63;1.20;;;4.80;92.70;;;;;;6109940;23;20515;-82
2021/11/27 15:13:06;;;;;;;2.38;1.02;;;4.80;92.60;;;;;;6161168;23;20005;-82
2021/11/27 15:15:32;;;;;;;3.15;1.50;;;4.80;92.60;;;;;;6130041;23;20117;-82
2021/11/27 15:17:58;;;;;;;3.03;1.33;;;4.80;92.50;;;;;;6106865;23;20052;-83
2021/11/27 15:20:24;;;;;;;3.50;1.55;;;4.70;92.50;;;;;;6164215;23;20035;-82
2021/11/27 15:22:50;;;;;;;2.97;1.25;;;4.70;92.50;;;;;;6111820;23;20028;-80
2021/11/27 15:25:16;;;;;;;2.30;1.15;;;4.80;92.50;;;;;;6159780;23;20041;-80
2021/11/27 15:27:41;;;;;;;2.50;1.17;;;4.80;92.50;;;;;;6172456;22;20023;-80
2021/11/27 15:30:08;;;;;;;3.10;1.38;;;4.80;92.50;;;;;;6250743;22;20478;-80
2021/11/27 15:32:34;;;;;;;3.22;1.50;;;4.80;92.50;;;;;;6204438;22;20004;-80
2021/11/27 15:35:00;;;;;;;2.03;0.95;;;4.80;92.50;;;;;;6227483;22;20418;-79
2021/11/27 15:37:29;;;;;;;1.92;1.20;;;4.70;92.50;;;;;;6286220;22;20079;-81
2021/11/27 15:39:55;;;;;;;2.70;1.40;;;4.80;92.50;;;;;;6253584;22;20039;-80
2021/11/27 15:42:22;;;;;;;1.42;0.90;;;4.80;92.50;;;;;;6202766;22;20364;-79
2021/11/27 15:44:49;;;;;;;2.28;1.10;;;4.80;92.50;;;;;;6254647;22;20007;-80
2021/11/27 15:47:17;;;;;;;2.42;1.30;;;4.80;92.50;;;;;;6250579;22;20011;-79
2021/11/27 15:49:43;;;;;;;1.00;0.80;;;4.80;92.70;;;;;;6253424;22;19999;-82
2021/11/27 15:52:09;;;;;;;2.03;1.10;;;4.70;92.40;;;;;;6221186;22;20327;-82
2021/11/27 15:54:35;;;;;;;4.15;1.45;;;4.70;92.40;;;;;;6248243;22;20028;-82
2021/11/27 15:57:02;;;;;;;2.17;1.40;;;4.60;92.40;;;;;;6275751;22;20122;-83
2021/11/27 16:02:56;;;;;;;2.22;1.10;;;4.40;92.50;;;;;;6207572;23;20024;-81
2021/11/27 16:05:23;;;;;;;2.05;1.35;;;4.30;92.60;;;;;;6208401;23;20029;-82
2021/11/27 16:07:49;;;;;;;1.85;1.20;;;4.10;92.70;;;;;;6160108;23;20312;-82
2021/11/27 16:10:15;;;;;;;2.45;1.30;;;4.10;92.70;;;;;;6186730;23;20013;-82
2021/11/27 16:12:41;;;;;;;2.28;1.30;;;4.10;92.80;;;;;;6162087;23;20035;-83
2021/11/27 16:15:07;;;;;;;1.17;0.73;;;4.00;92.80;;;;;;6186312;23;20337;-83
2021/11/27 16:17:33;;;;;;;1.45;0.98;;;4.00;92.80;;;;;;6162485;23;20036;-81
2021/11/27 16:20:00;;;;;;;2.38;1.00;;;4.00;92.80;;;;;;6162171;23;20008;-82
2021/11/27 16:22:28;;;;;;;1.90;0.63;;;3.90;92.80;;;;;;6187109;23;20424;-83
2021/11/27 16:24:55;;;;;;;1.15;0.77;;;4.00;92.90;;;;;;6162074;23;19997;-82
2021/11/27 16:27:21;;;;;;;1.70;0.82;;;4.00;92.90;;;;;;6248678;22;20051;-82
2021/11/27 16:29:48;;;;;;;2.80;0.80;;;3.90;92.90;;;;;;6225017;22;19998;-82
2021/11/27 16:32:15;;;;;;;2.35;0.60;;;3.90;92.90;;;;;;6248393;22;19992;-82
2021/11/27 16:34:42;;;;;;;1.17;0.40;;;3.80;92.90;;;;;;6222605;22;20331;-82
2021/11/27 16:37:08;;;;;;;1.10;0.60;;;3.90;92.90;;;;;;6249773;22;20000;-83
2021/11/27 16:39:34;;;;;;;0.98;0.47;;;3.80;92.90;;;;;;6223030;22;20323;-82
2021/11/27 16:42:00;;;;;;;0.70;0.32;;;3.90;92.90;;;;;;6274784;22;20001;-81
2021/11/27 16:44:28;;;;;;;1.33;0.63;;;3.70;92.90;;;;;;6275948;22;20382;-85
2021/11/27 16:46:55;;;;;;;0.68;0.43;;;3.80;92.90;;;;;;6193940;22;20018;-79
2021/11/27 16:49:21;;;;;;;1.20;0.70;;;4.10;93.00;;;;;;6221560;22;20078;-83
2021/11/27 16:51:48;;;;;;;0.40;0.40;;;3.70;92.90;;;;;;6219599;22;20313;-84
2021/11/27 16:54:14;;;;;;;0.57;0.40;;;3.80;92.90;;;;;;6222266;22;20004;-84
2021/11/27 16:56:40;;;;;;;0.32;0.30;;;3.70;92.90;;;;;;6218210;22;20514;-84
2021/11/27 16:59:06;;;;;;;0.65;0.40;;;3.70;92.90;;;;;;6221465;22;20054;-84
2021/11/27 17:01:38;;;;;;;0.40;0.40;;;3.80;92.90;;;;;;6248753;22;20446;-85
2021/11/27 17:04:08;;;;;;;0.40;0.40;;;3.70;92.90;;;;;;6225636;22;20012;-85
2021/11/27 17:06:34;;;;;;;0.28;0.28;;;3.80;92.90;;;;;;6193191;22;20070;-85
2021/11/27 17:08:59;;;;;;;0.75;0.30;;;3.80;92.90;;;;;;6198126;22;20447;-85
2021/11/27 17:11:28;;;;;;;0.70;0.32;;;3.70;92.90;;;;;;6223043;22;20119;-84
2021/11/27 17:17:39;;;;;;;0.63;0.40;;;3.70;92.90;;;;;;6179204;23;20071;-83
2021/11/27 17:20:10;;;;;;;0.32;0.20;;;3.80;92.90;;;;;;6127212;23;20014;-83
2021/11/27 17:22:37;;;;;;;0.33;0.30;;;3.70;92.80;;;;;;6101061;23;20450;-83
2021/11/27 17:25:04;;;;;;;0.20;0.20;;;3.80;92.80;;;;;;6125313;23;20435;-83
2021/11/27 17:27:30;;;;;;;0.10;0.10;;;3.70;92.80;;;;;;6121835;23;20014;-83
2021/11/27 17:29:56;;;;;;;0.75;0.30;;;3.80;92.90;;;;;;6133255;23;20064;-83
2021/11/27 17:32:21;;;;;;;0.20;0.20;;;3.70;92.80;;;;;;6102250;23;20018;-82
2021/11/27 17:34:50;;;;;;;0.45;0.30;;;3.70;92.80;;;;;;6151551;23;20025;-84
2021/11/27 17:37:17;;;;;;;0.25;0.25;;;3.90;92.90;;;;;;6018300;23;20010;-82
2021/11/27 17:39:42;;;;;;;0.90;0.43;;;3.80;92.80;;;;;;6040266;23;20034;-84
2021/11/27 17:42:08;;;;;;;0.30;0.30;;;3.70;92.80;;;;;;5978726;24;20023;-82
2021/11/27 17:44:34;;;;;;;0.35;0.30;;;3.70;92.80;;;;;;5992536;23;20119;-81
2021/11/27 17:47:00;;;;;;;0.85;0.45;;;3.70;92.80;;;;;;6008741;23;20344;-81
2021/11/27 17:49:26;;;;;;;0.30;0.30;;;3.70;92.80;;;;;;6007588;23;20050;-81
2021/11/27 17:51:53;;;;;;;1.75;0.45;;;3.70;92.80;;;;;;6031497;23;20488;-81
2021/11/27 17:54:20;;;;;;;0.38;0.30;;;3.80;92.90;;;;;;6067109;23;20089;-81
2021/11/27 17:56:45;;;;;;;0.22;0.22;;;3.80;92.90;;;;;;6017569;23;20093;-81
2021/11/27 17:59:11;;;;;;;0.70;0.30;;;3.70;92.90;;;;;;6016794;23;20391;-81
2021/11/27 18:01:37;;;;;;;0.85;0.50;;;3.70;92.90;;;;;;6105784;23;20149;-81
2021/11/27 18:04:04;;;;;;;0.43;0.35;;;3.70;92.90;;;;;;6103467;23;20068;-82
2021/11/27 18:06:30;;;;;;;0.40;0.40;;;3.80;92.90;;;;;;6129179;23;20105;-82
2021/11/27 18:08:56;;;;;;;0.30;0.30;;;3.70;92.90;;;;;;6133148;23;20005;-82
2021/11/27 18:11:23;;;;;;;0.52;0.35;;;3.80;92.90;;;;;;6133624;23;20036;-82
2021/11/27 18:13:48;;;;;;;0.52;0.50;;;3.70;92.90;;;;;;6218565;22;20122;-82
2021/11/27 18:16:14;;;;;;;0.30;0.30;;;3.80;92.90;;;;;;6224779;22;20436;-82
2021/11/27 18:18:40;;;;;;;0.35;0.32;;;3.90;93.00;;;;;;6248794;22;20012;-81
2021/11/27 18:21:28;;;;;;;0.20;0.20;;;3.80;92.90;;;;;;6248529;22;20004;-82
2021/11/27 18:23:55;;;;;;;0.63;0.30;;;3.80;92.90;;;;;;6255141;22;19999;-81
2021/11/27 18:26:27;;;;;;;0.65;0.40;;;3.80;92.90;;;;;;6247888;22;20065;-81
2021/11/27 18:28:53;;;;;;;0.20;0.20;;;3.80;92.90;;;;;;6224165;22;20000;-81
2021/11/27 18:31:20;;;;;;;0.28;0.28;;;3.80;92.90;;;;;;6248362;22;20015;-80
2021/11/27 18:33:47;;;;;;;0.77;0.60;;;3.80;92.90;;;;;;6222988;22;20457;-80
2021/11/27 18:36:14;;;;;;;0.35;0.30;;;3.80;92.90;;;;;;6198268;22;20010;-81
2021/11/27 18:38:45;;;;;;;0.50;0.43;;;3.80;92.90;;;;;;6195772;22;20331;-81
2021/11/27 18:41:13;;;;;;;0.85;0.57;;;3.80;92.90;;;;;;6249206;22;20079;-81
2021/11/27 18:43:39;;;;;;;1.13;0.47;;;4.00;92.90;;;;;;6248295;22;20118;-81
2021/11/27 18:46:05;;;;;;;0.65;0.50;;;3.80;92.90;;;;;;6275715;22;20003;-81
2021/11/27 18:48:30;;;;;;;0.70;0.50;;;3.90;92.90;;;;;;6223058;22;20018;-80
2021/11/27 18:50:56;;;;;;;0.52;0.40;;;3.90;92.90;;;;;;6227534;22;20000;-80
2021/11/27 18:53:25;;;;;;;0.45;0.40;;;3.80;92.80;;;;;;6229330;22;20007;-81
2021/11/27 18:55:51;;;;;;;0.50;0.40;;;3.90;92.90;;;;;;6255732;22;20019;-80